Terminal Aerodrome Forecast
Issued by NWS

Home | Current Version | Previous Version | Text Only | Print | Product List | Glossary Off
Versions: 1 2 3 4 5 6 7 8 9 10 11 12 13 14 15 16 17 18 19 20 21 22

332
FTUS43 KMPX 042334
TAFAXN
TAF
KAXN 042334Z 0500/0524 28005KT P6SM SCT022
      TEMPO 0500/0502 OVC022
     FM050300 21005KT P6SM SKC
     FM051000 17007KT P6SM OVC090
     FM051600 17007KT 3SM -SN BR OVC020
     FM052200 27006KT P6SM BKN020=

USA.gov is the U.S. government's official web portal to all federal, state and local government web resources and services.